Portada
METAR-TAF:

METAR-TAF

Aeroports :

Tsushima, Japó

latitud: 34-17N, longitud: 129-20E, altitud: 63 m

Observació

L'informe es va fer fa 1 hora i 14 minuts, a les 07:00 UTC
Vent 7 kt del Nord-Est, variant entre Nord i Est
Temperatura 20°C
Humitat 88%
Pressió 1008 hPa
Visibilitat 10 km o més
Escasses núvols a una alçada de 700 ft
Núvols disperses a una alçada de 800 ft
Cel ennuvolat a una alçada de 1000 ft

METAR: RJDT 060700Z 04007KT 360V090 9999 FEW007 SCT008 BKN010 20/18 Q1008

Hora: 17:14 (08:14 UTC)


TAF: manca

Observacions i pronòstics meteorològics de més de 4000 aeroports (METAR i TAF).

Les estacions disponibles són els punts grocs i vermells al mapa.

Posi el ratolí al punt desitjat per veure el nom de l'estació.

Feu clic per veure les observacions i els pronòstics meteorològics.

Per canviar el mapa: feu clic els botons verds amb una creu de color negre per apropar; al botó verd amb un guió per allunyar la imatge; o en les fletxes verdes per a mapes adjacents.


METAR-TAF: